Time;durP1;ratioP1;P1;durP2;ratioP2;P2;SDS_P1;SDS_P2;PMS_P1;PMS_P2;Temp;Humidity;BMP_temperature;BMP_pressure;BME280_temperature;BME280_humidity;BME280_pressure;Samples;Min_cycle;Max_cycle;Signal;HPM_P1;HPM_P2
2022/11/02 00:00:46;;;;;;;0.30;0.30;;;12.10;99.90;;;;;;5075839;28;20190;-71
2022/11/02 00:03:11;;;;;;;2.30;2.20;;;12.10;99.90;;;;;;5076047;28;20162;-69
2022/11/02 00:05:37;;;;;;;0.30;0.30;;;12.10;99.90;;;;;;5076035;28;20753;-69
2022/11/02 00:08:03;;;;;;;0.60;0.60;;;11.90;99.90;;;;;;5075978;28;20169;-71
2022/11/02 00:10:29;;;;;;;2.77;2.00;;;11.90;99.90;;;;;;5075619;28;20238;-72
2022/11/02 00:12:55;;;;;;;1.13;1.13;;;11.90;99.90;;;;;;5075730;28;20635;-69
2022/11/02 00:15:22;;;;;;;0.60;0.47;;;11.90;99.90;;;;;;5075601;28;20177;-70
2022/11/02 00:17:51;;;;;;;0.40;0.40;;;11.80;99.90;;;;;;5075710;28;20475;-70
2022/11/02 00:20:19;;;;;;;0.60;0.60;;;11.80;99.90;;;;;;5075420;28;20603;-69
2022/11/02 00:22:46;;;;;;;0.47;0.47;;;11.90;99.90;;;;;;5075109;28;20181;-70
2022/11/02 00:25:16;;;;;;;0.30;0.30;;;12.10;99.90;;;;;;5075378;28;20183;-71
2022/11/02 00:27:42;;;;;;;0.30;0.30;;;12.20;99.90;;;;;;5075560;28;20170;-72
2022/11/02 00:30:08;;;;;;;1.23;0.60;;;12.30;99.90;;;;;;5075549;28;20439;-68
2022/11/02 00:32:34;;;;;;;0.40;0.40;;;12.30;99.90;;;;;;5075466;28;20185;-71
2022/11/02 00:35:00;;;;;;;0.40;0.40;;;12.30;99.90;;;;;;5075335;28;20174;-71
2022/11/02 00:37:25;;;;;;;0.70;0.70;;;12.30;99.90;;;;;;5075338;28;20190;-72
2022/11/02 00:39:51;;;;;;;0.83;0.50;;;12.10;99.90;;;;;;5075301;28;20166;-72
2022/11/02 00:42:17;;;;;;;0.70;0.70;;;12.20;99.90;;;;;;5075149;28;20166;-71
2022/11/02 00:44:43;;;;;;;0.30;0.30;;;12.20;99.90;;;;;;5075253;28;20210;-71
2022/11/02 00:47:10;;;;;;;0.70;0.60;;;12.20;99.90;;;;;;5075325;28;20170;-72
2022/11/02 00:49:36;;;;;;;0.40;0.40;;;12.10;99.90;;;;;;5074882;28;20755;-70
2022/11/02 00:52:02;;;;;;;0.40;0.40;;;12.20;99.90;;;;;;5074966;28;20461;-70
2022/11/02 00:54:27;;;;;;;0.53;0.53;;;12.20;99.90;;;;;;5074938;28;20211;-71
2022/11/02 00:56:53;;;;;;;0.40;0.40;;;12.20;99.90;;;;;;5074887;28;20484;-70
2022/11/02 00:59:19;;;;;;;0.50;0.50;;;12.20;99.90;;;;;;5074891;28;20169;-69
2022/11/02 01:01:46;;;;;;;0.37;0.37;;;12.20;99.90;;;;;;5074774;28;20420;-71
2022/11/02 01:04:16;;;;;;;0.40;0.40;;;12.20;99.90;;;;;;5074985;28;20166;-69
2022/11/02 01:06:42;;;;;;;0.43;0.43;;;12.10;99.90;;;;;;5075164;28;20809;-71
2022/11/02 01:09:09;;;;;;;0.30;0.30;;;12.20;99.90;;;;;;5074695;28;20227;-70
2022/11/02 01:11:36;;;;;;;0.68;0.60;;;12.10;99.90;;;;;;5074527;28;20193;-71
2022/11/02 01:14:02;;;;;;;0.40;0.40;;;12.00;99.90;;;;;;5074641;28;20264;-69
2022/11/02 01:16:28;;;;;;;0.40;0.40;;;11.90;99.90;;;;;;5074619;28;20247;-71
2022/11/02 01:18:55;;;;;;;0.40;0.40;;;11.90;99.90;;;;;;5074439;28;20178;-70
2022/11/02 01:21:22;;;;;;;0.40;0.40;;;11.90;99.90;;;;;;5073113;28;20440;-70
2022/11/02 01:23:48;;;;;;;0.40;0.40;;;12.00;99.90;;;;;;5074587;28;20208;-71
2022/11/02 01:26:14;;;;;;;0.30;0.30;;;12.00;99.90;;;;;;5074270;28;20432;-72
2022/11/02 01:28:40;;;;;;;2.10;0.80;;;12.00;99.90;;;;;;5074636;28;20589;-71
2022/11/02 01:31:07;;;;;;;0.40;0.40;;;12.00;99.90;;;;;;5074180;28;20454;-71
2022/11/02 01:33:33;;;;;;;0.88;0.88;;;12.00;99.90;;;;;;5073490;28;20178;-71
2022/11/02 01:36:01;;;;;;;4.63;1.30;;;11.90;99.90;;;;;;5074234;28;20173;-71
2022/11/02 01:38:26;;;;;;;0.40;0.40;;;11.90;99.90;;;;;;5074089;28;20161;-71
2022/11/02 01:40:52;;;;;;;0.30;0.30;;;11.90;99.90;;;;;;5073824;28;20431;-71
2022/11/02 01:43:19;;;;;;;1.63;0.70;;;12.00;99.90;;;;;;5074253;28;20523;-68
2022/11/02 01:45:45;;;;;;;0.55;0.55;;;12.00;99.90;;;;;;5074185;28;20162;-69
2022/11/02 01:48:11;;;;;;;0.30;0.30;;;12.00;99.90;;;;;;5074060;28;20536;-69
2022/11/02 01:50:37;;;;;;;0.40;0.40;;;12.00;99.90;;;;;;5073679;28;20272;-68
2022/11/02 01:53:03;;;;;;;1.27;1.15;;;12.00;99.90;;;;;;5073875;28;20173;-69
2022/11/02 01:55:31;;;;;;;0.30;0.30;;;12.00;99.90;;;;;;5073916;28;20162;-71
2022/11/02 01:58:08;;;;;;;1.13;1.13;;;12.10;99.90;;;;;;5073927;28;20452;-69
2022/11/02 02:00:34;;;;;;;0.40;0.40;;;12.10;99.90;;;;;;5073599;28;20189;-69
2022/11/02 02:03:06;;;;;;;0.30;0.30;;;12.10;99.90;;;;;;5073814;28;20161;-72
2022/11/02 02:05:34;;;;;;;0.40;0.40;;;12.00;99.90;;;;;;5073973;28;20193;-69
2022/11/02 02:08:02;;;;;;;1.17;0.97;;;12.00;99.90;;;;;;5073730;28;20400;-69
2022/11/02 02:10:28;;;;;;;0.30;0.30;;;12.10;99.90;;;;;;5073621;28;20790;-69
2022/11/02 02:12:54;;;;;;;1.13;0.80;;;12.10;99.90;;;;;;5073636;28;20411;-71
2022/11/02 02:15:26;;;;;;;0.30;0.30;;;12.20;99.90;;;;;;5073790;28;20169;-72
2022/11/02 02:18:10;;;;;;;1.77;0.77;;;12.20;99.90;;;;;;5073628;28;20504;-72
2022/11/02 02:20:55;;;;;;;0.82;0.57;;;12.20;99.90;;;;;;5073334;28;20990;-70
2022/11/02 02:23:38;;;;;;;0.60;0.60;;;12.20;99.90;;;;;;5073443;28;20602;-69
2022/11/02 02:26:42;;;;;;;0.40;0.40;;;12.30;99.90;;;;;;5073504;28;20185;-70
2022/11/02 02:29:33;;;;;;;0.30;0.30;;;12.20;99.90;;;;;;4972717;28;20427;-70
2022/11/02 02:32:16;;;;;;;0.30;0.30;;;12.20;99.90;;;;;;4954515;28;20649;-68
2022/11/02 02:34:59;;;;;;;0.30;0.30;;;12.20;99.90;;;;;;5048457;28;20174;-69
2022/11/02 02:37:35;;;;;;;2.40;1.80;;;12.20;99.90;;;;;;5073506;28;20197;-71
2022/11/02 02:40:29;;;;;;;0.37;0.37;;;12.10;99.40;;;;;;5073222;28;20419;-70
2022/11/02 02:43:10;;;;;;;0.40;0.40;;;12.10;99.80;;;;;;5055763;28;20408;-70
2022/11/02 02:45:46;;;;;;;2.65;2.50;;;12.10;99.90;;;;;;5075084;28;20525;-71
2022/11/02 02:48:16;;;;;;;0.30;0.30;;;12.00;99.90;;;;;;5077583;28;20169;-70
2022/11/02 02:50:55;;;;;;;0.45;0.45;;;11.90;99.90;;;;;;5077132;28;20247;-70
2022/11/02 02:53:26;;;;;;;0.60;0.60;;;11.80;99.90;;;;;;5077345;28;20169;-70
2022/11/02 02:55:52;;;;;;;0.30;0.30;;;11.80;99.90;;;;;;5077309;28;20173;-70
2022/11/02 02:58:25;;;;;;;0.30;0.30;;;11.80;99.90;;;;;;5077304;28;20169;-70
2022/11/02 03:00:52;;;;;;;1.73;1.63;;;11.70;99.90;;;;;;5077013;28;20185;-69
2022/11/02 03:03:22;;;;;;;0.30;0.30;;;11.70;99.90;;;;;;5077019;28;20635;-71
2022/11/02 03:06:16;;;;;;;0.50;0.50;;;11.70;99.90;;;;;;5076939;28;20165;-71
2022/11/02 03:08:47;;;;;;;0.65;0.65;;;11.70;99.90;;;;;;5077209;28;20720;-69
2022/11/02 03:11:19;;;;;;;0.30;0.30;;;11.80;99.90;;;;;;5077103;28;20192;-69
2022/11/02 03:14:12;;;;;;;0.30;0.30;;;11.80;99.90;;;;;;5076848;28;20986;-69
2022/11/02 03:16:53;;;;;;;0.30;0.30;;;11.90;99.90;;;;;;5076855;28;20208;-70
2022/11/02 03:19:33;;;;;;;0.75;0.75;;;11.90;99.90;;;;;;5076742;28;20646;-70
2022/11/02 03:22:19;;;;;;;0.30;0.30;;;11.90;99.90;;;;;;5076637;28;20154;-69
2022/11/02 03:25:23;;;;;;;0.40;0.40;;;11.90;99.90;;;;;;5076748;28;20177;-70
2022/11/02 03:28:23;;;;;;;0.30;0.30;;;11.90;99.90;;;;;;5076810;28;20184;-69
2022/11/02 03:30:58;;;;;;;0.40;0.40;;;11.90;99.90;;;;;;5062865;28;20622;-71
2022/11/02 03:33:53;;;;;;;0.30;0.30;;;11.80;99.90;;;;;;5076525;28;20197;-71
2022/11/02 03:36:21;;;;;;;0.30;0.30;;;11.80;99.90;;;;;;5075816;28;20580;-70
2022/11/02 03:38:52;;;;;;;0.30;0.30;;;11.80;99.90;;;;;;5076405;28;20238;-71
2022/11/02 03:41:21;;;;;;;0.30;0.30;;;11.90;99.90;;;;;;5076626;28;20424;-69
2022/11/02 03:43:50;;;;;;;0.30;0.30;;;11.90;99.90;;;;;;5076677;28;20725;-70
2022/11/02 03:46:17;;;;;;;0.30;0.30;;;12.00;99.90;;;;;;5076421;28;20185;-69
2022/11/02 03:48:46;;;;;;;1.48;1.08;;;12.00;99.90;;;;;;5076413;28;20538;-68
2022/11/02 03:51:16;;;;;;;0.30;0.30;;;12.10;99.90;;;;;;5076281;28;20205;-70
2022/11/02 03:53:52;;;;;;;0.50;0.50;;;12.10;99.90;;;;;;5076336;28;20411;-69
2022/11/02 03:56:34;;;;;;;3.30;0.50;;;12.10;99.90;;;;;;5076060;28;20435;-71
2022/11/02 03:59:00;;;;;;;0.40;0.40;;;11.90;99.90;;;;;;5076074;28;20299;-70
2022/11/02 04:01:27;;;;;;;0.30;0.30;;;12.00;99.90;;;;;;5075946;28;20453;-70
2022/11/02 04:03:53;;;;;;;0.30;0.30;;;12.00;99.90;;;;;;5076171;28;20538;-70
2022/11/02 04:06:19;;;;;;;0.37;0.37;;;12.10;99.90;;;;;;5075930;28;20170;-68
2022/11/02 04:08:48;;;;;;;0.30;0.30;;;12.10;99.90;;;;;;5075756;28;20188;-70
2022/11/02 04:16:43;;;;;;;0.30;0.30;;;11.90;99.90;;;;;;5076100;28;20208;-71
2022/11/02 04:19:27;;;;;;;0.90;0.50;;;11.90;99.90;;;;;;5075693;28;20173;-72
2022/11/02 04:27:23;;;;;;;0.30;0.30;;;11.80;99.90;;;;;;5076076;28;20268;-69
2022/11/02 04:29:49;;;;;;;0.40;0.40;;;11.90;99.90;;;;;;5075306;28;20663;-71
2022/11/02 04:33:31;;;;;;;0.40;0.40;;;11.70;99.90;;;;;;5075442;28;20172;-70
2022/11/02 04:35:02;;;;;;;0.30;0.30;;;11.80;99.90;;;;;;5075405;28;20181;-69
2022/11/02 04:40:12;;;;;;;0.40;0.40;;;11.80;99.90;;;;;;5075122;28;20196;-69
2022/11/02 04:42:37;;;;;;;0.67;0.67;;;11.80;99.90;;;;;;5075321;28;20173;-70
2022/11/02 04:45:03;;;;;;;0.40;0.40;;;11.80;99.90;;;;;;5075332;28;20456;-71
2022/11/02 04:47:29;;;;;;;0.93;0.63;;;11.80;99.90;;;;;;5075563;28;20222;-71
2022/11/02 04:49:54;;;;;;;0.43;0.40;;;11.80;99.90;;;;;;5074838;28;20925;-72
2022/11/02 04:52:20;;;;;;;0.60;0.60;;;11.70;99.90;;;;;;5075165;28;20173;-71
2022/11/02 04:54:46;;;;;;;0.30;0.30;;;11.70;99.90;;;;;;5075198;28;20175;-70
2022/11/02 04:57:11;;;;;;;0.30;0.30;;;11.70;99.90;;;;;;5074793;28;20199;-70
2022/11/02 04:59:37;;;;;;;0.30;0.30;;;11.70;99.90;;;;;;5074726;28;20299;-70
2022/11/02 05:02:02;;;;;;;1.90;0.93;;;11.90;99.90;;;;;;5074803;28;20627;-71
2022/11/02 05:04:28;;;;;;;1.73;0.83;;;11.90;99.90;;;;;;5075033;28;20578;-70
2022/11/02 05:06:54;;;;;;;0.40;0.40;;;11.90;99.90;;;;;;5075171;28;20549;-69
2022/11/02 05:09:19;;;;;;;0.40;0.40;;;11.90;99.90;;;;;;5073719;28;20181;-71
2022/11/02 05:11:45;;;;;;;1.00;0.47;;;11.90;99.90;;;;;;5074594;28;20193;-70
2022/11/02 05:14:11;;;;;;;1.13;0.50;;;12.00;99.90;;;;;;5074809;28;20235;-71
2022/11/02 05:16:36;;;;;;;0.30;0.30;;;12.00;99.90;;;;;;5074521;28;20204;-68
2022/11/02 05:19:02;;;;;;;0.43;0.43;;;12.10;99.90;;;;;;5073117;28;20211;-68
2022/11/02 05:21:28;;;;;;;0.40;0.40;;;12.10;99.90;;;;;;5074420;28;20234;-71
2022/11/02 05:23:53;;;;;;;0.43;0.40;;;12.20;99.90;;;;;;5074396;28;20253;-69
2022/11/02 05:26:19;;;;;;;1.70;1.60;;;12.20;99.90;;;;;;5074303;28;20221;-70
2022/11/02 05:28:45;;;;;;;0.73;0.73;;;12.20;99.90;;;;;;5074284;28;20205;-69
2022/11/02 05:31:10;;;;;;;0.30;0.30;;;12.20;99.90;;;;;;5074222;28;20709;-71
2022/11/02 05:33:36;;;;;;;0.93;0.40;;;12.20;99.50;;;;;;5074225;28;20551;-69
2022/11/02 05:36:02;;;;;;;0.40;0.40;;;12.30;99.70;;;;;;5074290;28;20623;-70
2022/11/02 05:38:28;;;;;;;0.57;0.57;;;12.20;99.60;;;;;;5074008;28;20197;-68
2022/11/02 05:40:56;;;;;;;0.40;0.40;;;12.30;99.60;;;;;;5073814;28;20439;-68
2022/11/02 05:43:22;;;;;;;0.40;0.40;;;12.30;99.30;;;;;;5074025;28;20537;-71
2022/11/02 05:45:56;;;;;;;0.50;0.50;;;12.30;99.30;;;;;;5074155;28;20399;-70
2022/11/02 05:48:22;;;;;;;0.40;0.40;;;12.30;99.20;;;;;;5074053;28;20173;-71
2022/11/02 05:50:48;;;;;;;0.30;0.30;;;12.30;99.20;;;;;;5073688;28;20186;-71
2022/11/02 05:53:14;;;;;;;1.67;1.33;;;12.20;99.00;;;;;;5073910;28;20179;-71
2022/11/02 05:55:40;;;;;;;1.67;1.58;;;12.10;99.00;;;;;;5073933;28;20173;-69
2022/11/02 05:58:06;;;;;;;0.40;0.40;;;12.20;99.20;;;;;;5073893;28;20211;-70
2022/11/02 06:00:31;;;;;;;0.30;0.30;;;12.10;99.20;;;;;;5073536;28;20620;-71
2022/11/02 06:02:57;;;;;;;0.40;0.40;;;12.20;99.30;;;;;;5073779;28;20166;-71
2022/11/02 06:05:24;;;;;;;0.47;0.47;;;12.20;99.20;;;;;;5073940;28;20166;-71
2022/11/02 06:07:50;;;;;;;0.82;0.82;;;12.20;99.30;;;;;;5073820;28;20836;-70
2022/11/02 06:10:16;;;;;;;0.30;0.30;;;12.10;99.50;;;;;;5073385;28;20225;-70
2022/11/02 06:12:41;;;;;;;0.30;0.30;;;12.10;99.60;;;;;;5073607;28;20201;-71
2022/11/02 06:15:08;;;;;;;0.30;0.30;;;12.20;99.50;;;;;;5073582;28;20230;-70
2022/11/02 06:17:39;;;;;;;0.30;0.30;;;12.20;99.20;;;;;;5073517;28;20251;-71
2022/11/02 06:20:06;;;;;;;0.40;0.40;;;12.20;99.10;;;;;;5072994;28;20453;-68
2022/11/02 06:22:42;;;;;;;0.40;0.40;;;12.20;99.30;;;;;;5073695;28;20228;-69
2022/11/02 06:25:08;;;;;;;0.30;0.30;;;12.20;99.40;;;;;;5073501;28;20166;-72
2022/11/02 06:27:34;;;;;;;0.30;0.30;;;12.20;99.40;;;;;;5073941;28;20212;-70
2022/11/02 06:30:00;;;;;;;1.33;1.20;;;12.20;99.70;;;;;;5073212;28;20219;-72
2022/11/02 06:32:26;;;;;;;0.30;0.30;;;12.30;99.20;;;;;;5073542;28;20434;-71
2022/11/02 06:34:52;;;;;;;0.40;0.40;;;12.20;99.10;;;;;;5073580;28;20173;-71
2022/11/02 06:37:17;;;;;;;6.63;1.90;;;12.20;99.50;;;;;;5073400;28;20204;-70
2022/11/02 06:39:43;;;;;;;0.40;0.40;;;12.10;99.90;;;;;;5073200;28;20167;-69
2022/11/02 06:42:09;;;;;;;0.30;0.30;;;12.20;99.50;;;;;;5073299;28;20161;-69
2022/11/02 06:44:34;;;;;;;0.30;0.30;;;12.20;99.40;;;;;;5073323;28;20197;-69
2022/11/02 06:47:00;;;;;;;0.60;0.60;;;12.40;99.30;;;;;;5073356;28;20173;-69
2022/11/02 06:49:25;;;;;;;0.50;0.40;;;12.40;99.00;;;;;;5073119;28;20544;-69
2022/11/02 06:51:51;;;;;;;0.30;0.30;;;12.40;98.70;;;;;;5073224;28;20190;-71
2022/11/02 06:54:17;;;;;;;0.40;0.40;;;12.40;98.70;;;;;;5073381;28;20251;-68
2022/11/02 06:56:43;;;;;;;0.40;0.40;;;12.50;98.70;;;;;;5073583;28;20223;-70
2022/11/02 06:59:08;;;;;;;0.30;0.30;;;12.40;98.40;;;;;;5073006;28;20550;-70
2022/11/02 07:01:34;;;;;;;1.73;1.63;;;12.40;98.50;;;;;;5073104;28;20213;-69
2022/11/02 07:04:01;;;;;;;0.50;0.50;;;12.20;98.80;;;;;;5073322;28;20707;-69
2022/11/02 07:06:27;;;;;;;0.30;0.30;;;12.20;99.10;;;;;;5073234;28;20403;-69
2022/11/02 07:08:53;;;;;;;0.30;0.30;;;12.30;98.80;;;;;;5073122;28;20417;-71
2022/11/02 07:11:19;;;;;;;0.30;0.30;;;12.20;98.60;;;;;;5072982;28;20197;-71
2022/11/02 07:13:45;;;;;;;0.40;0.40;;;12.20;98.60;;;;;;5073473;28;20730;-71
2022/11/02 07:16:10;;;;;;;0.50;0.50;;;12.20;98.90;;;;;;5072991;28;20174;-70
2022/11/02 07:18:36;;;;;;;0.33;0.33;;;12.30;98.90;;;;;;5073149;28;20404;-69
2022/11/02 07:21:02;;;;;;;4.37;0.67;;;12.40;98.80;;;;;;5072766;28;20193;-71
2022/11/02 07:23:28;;;;;;;0.40;0.40;;;12.50;98.70;;;;;;5073110;28;20528;-71
2022/11/02 07:25:54;;;;;;;0.40;0.40;;;12.50;98.10;;;;;;5072819;28;20268;-71
2022/11/02 07:28:20;;;;;;;1.07;0.87;;;12.50;98.20;;;;;;5073136;28;20165;-69
2022/11/02 07:30:46;;;;;;;0.37;0.37;;;12.50;97.90;;;;;;5072705;28;20312;-71
2022/11/02 07:33:11;;;;;;;0.57;0.57;;;12.50;98.00;;;;;;5075381;28;20919;-70
2022/11/02 07:35:37;;;;;;;0.93;0.40;;;12.50;98.10;;;;;;5076482;28;20781;-70
2022/11/02 07:38:05;;;;;;;0.50;0.50;;;12.60;98.20;;;;;;5076543;28;20194;-70
2022/11/02 07:40:34;;;;;;;0.40;0.40;;;12.70;98.00;;;;;;5076229;28;20669;-71
2022/11/02 07:43:01;;;;;;;0.40;0.40;;;12.70;98.00;;;;;;5076415;28;20471;-70
2022/11/02 07:45:28;;;;;;;0.30;0.30;;;12.80;98.00;;;;;;5076383;28;20418;-71
2022/11/02 07:47:54;;;;;;;0.40;0.40;;;12.80;97.90;;;;;;5076207;28;20400;-70
2022/11/02 07:50:21;;;;;;;0.30;0.30;;;12.80;98.00;;;;;;5076076;28;20481;-69
2022/11/02 07:52:49;;;;;;;0.40;0.40;;;12.70;97.80;;;;;;5076140;28;20404;-70
2022/11/02 07:55:17;;;;;;;0.40;0.40;;;12.70;98.30;;;;;;5076126;28;20437;-68
2022/11/02 07:57:50;;;;;;;0.50;0.50;;;12.70;98.40;;;;;;5076075;28;20455;-71
2022/11/02 08:00:17;;;;;;;0.37;0.37;;;12.80;98.20;;;;;;5076039;28;20423;-71
2022/11/02 08:02:42;;;;;;;0.40;0.40;;;12.90;97.80;;;;;;5076024;28;20439;-72
2022/11/02 08:05:08;;;;;;;0.60;0.60;;;13.00;98.00;;;;;;5076126;28;20405;-71
2022/11/02 08:07:33;;;;;;;0.70;0.70;;;13.00;97.90;;;;;;5076326;28;20260;-71
2022/11/02 08:09:59;;;;;;;1.23;1.13;;;13.10;97.80;;;;;;5075588;28;20181;-68
2022/11/02 08:12:25;;;;;;;0.40;0.40;;;13.10;97.80;;;;;;5075998;28;20515;-69
2022/11/02 08:14:51;;;;;;;1.00;0.70;;;13.20;97.50;;;;;;5075893;28;20179;-68
2022/11/02 08:17:17;;;;;;;0.57;0.57;;;13.20;97.60;;;;;;5075742;28;20933;-71
2022/11/02 08:19:42;;;;;;;0.50;0.50;;;13.40;99.90;;;;;;5075522;28;20163;-69
2022/11/02 08:22:08;;;;;;;0.60;0.50;;;13.30;97.30;;;;;;5075847;28;20162;-71
2022/11/02 08:24:33;;;;;;;0.40;0.40;;;13.20;97.40;;;;;;5075595;28;20171;-72
2022/11/02 08:26:59;;;;;;;0.30;0.30;;;13.30;97.40;;;;;;5075561;28;20277;-71
2022/11/02 08:29:25;;;;;;;0.40;0.40;;;13.30;97.30;;;;;;5075624;28;20170;-69
2022/11/02 08:31:51;;;;;;;0.40;0.40;;;13.30;97.10;;;;;;5075408;28;20845;-72
2022/11/02 08:34:16;;;;;;;0.40;0.40;;;13.20;97.50;;;;;;5075339;28;20203;-71
2022/11/02 08:36:42;;;;;;;0.50;0.50;;;13.10;97.20;;;;;;5075494;28;20603;-71
2022/11/02 08:39:07;;;;;;;0.50;0.47;;;13.10;97.50;;;;;;5075316;28;20165;-69
2022/11/02 08:41:33;;;;;;;1.47;1.23;;;13.10;97.50;;;;;;5075362;28;20759;-69
2022/11/02 08:43:59;;;;;;;0.50;0.50;;;13.10;97.40;;;;;;5075192;28;20166;-71
2022/11/02 08:46:24;;;;;;;0.40;0.40;;;13.10;97.30;;;;;;5075395;28;20258;-71
2022/11/02 08:48:50;;;;;;;0.40;0.40;;;13.20;97.40;;;;;;5075122;28;20213;-69
2022/11/02 08:51:16;;;;;;;0.80;0.80;;;13.30;97.20;;;;;;5075155;28;20189;-72
2022/11/02 08:53:41;;;;;;;0.30;0.30;;;13.40;96.90;;;;;;5075096;28;20173;-69
2022/11/02 08:56:07;;;;;;;0.60;0.60;;;13.60;96.80;;;;;;5075231;28;20195;-69
2022/11/02 08:58:33;;;;;;;0.80;0.80;;;13.80;96.70;;;;;;5075071;28;20173;-70
2022/11/02 09:00:58;;;;;;;0.40;0.40;;;13.80;96.60;;;;;;5074675;28;20186;-68
2022/11/02 09:03:24;;;;;;;0.50;0.50;;;13.50;96.00;;;;;;5074830;28;20248;-70
2022/11/02 09:05:50;;;;;;;0.30;0.30;;;;;;;;;;5074430;28;20161;-71
2022/11/02 09:08:18;;;;;;;0.40;0.40;;;13.40;96.80;;;;;;5074768;28;20171;-70
2022/11/02 09:10:46;;;;;;;1.40;1.10;;;13.40;96.70;;;;;;5074626;28;20500;-72
2022/11/02 09:13:13;;;;;;;1.37;0.90;;;13.50;96.80;;;;;;5074716;28;20436;-69
2022/11/02 09:15:40;;;;;;;3.37;1.77;;;13.50;96.90;;;;;;5074733;28;20775;-71
2022/11/02 09:18:06;;;;;;;0.60;0.60;;;13.40;96.20;;;;;;5074604;28;20457;-71
2022/11/02 09:20:33;;;;;;;0.30;0.30;;;13.00;96.90;;;;;;5074195;28;20944;-69
2022/11/02 09:22:58;;;;;;;0.40;0.40;;;12.90;97.00;;;;;;5074839;28;20796;-71
2022/11/02 09:25:24;;;;;;;0.47;0.40;;;12.90;97.30;;;;;;5074310;28;20474;-72
2022/11/02 09:27:54;;;;;;;0.80;0.80;;;13.10;97.40;;;;;;5074440;28;20903;-69
2022/11/02 09:30:20;;;;;;;0.50;0.40;;;13.10;97.00;;;;;;5073921;28;20432;-71
2022/11/02 09:32:55;;;;;;;0.30;0.30;;;13.30;97.00;;;;;;5074195;28;20814;-71
2022/11/02 09:35:22;;;;;;;0.80;0.80;;;13.60;96.50;;;;;;5074041;28;20409;-71
2022/11/02 09:37:47;;;;;;;0.80;0.50;;;13.70;96.30;;;;;;5074070;28;20458;-71
2022/11/02 09:40:19;;;;;;;0.50;0.50;;;13.90;96.30;;;;;;5074021;28;20423;-69
2022/11/02 09:43:04;;;;;;;0.40;0.40;;;14.10;96.10;;;;;;5074138;28;20153;-69
2022/11/02 09:45:34;;;;;;;0.40;0.40;;;14.20;94.70;;;;;;5074498;28;20431;-70
2022/11/02 09:48:11;;;;;;;0.40;0.40;;;14.40;95.00;;;;;;5074336;28;20392;-70
2022/11/02 09:50:55;;;;;;;7.30;0.77;;;14.40;94.40;;;;;;5073786;28;20493;-68
2022/11/02 09:53:28;;;;;;;0.60;0.60;;;14.50;94.10;;;;;;5073959;28;20395;-70
2022/11/02 09:55:58;;;;;;;0.40;0.40;;;14.50;94.00;;;;;;5073744;28;20400;-69
2022/11/02 09:58:31;;;;;;;2.00;0.80;;;14.40;94.00;;;;;;5073800;28;20517;-68
2022/11/02 10:01:02;;;;;;;0.50;0.50;;;14.40;94.40;;;;;;5073433;28;20921;-68
2022/11/02 10:03:37;;;;;;;0.50;0.50;;;14.50;94.60;;;;;;5073861;28;20392;-71
2022/11/02 10:06:10;;;;;;;0.40;0.40;;;14.60;94.30;;;;;;5073850;28;20399;-70
2022/11/02 10:09:03;;;;;;;1.27;1.27;;;14.60;94.50;;;;;;5073723;28;20423;-71
2022/11/02 10:12:05;;;;;;;0.40;0.40;;;14.60;93.80;;;;;;5074047;28;20430;-69
2022/11/02 10:14:35;;;;;;;0.63;0.57;;;14.70;93.80;;;;;;5073551;28;20419;-72
2022/11/02 10:17:16;;;;;;;0.40;0.40;;;14.90;93.90;;;;;;5073542;28;20455;-69
2022/11/02 10:19:46;;;;;;;6.83;0.73;;;14.90;99.90;;;;;;5073303;28;20403;-70
2022/11/02 10:22:15;;;;;;;0.60;0.60;;;15.10;92.90;;;;;;5073619;28;20418;-68
2022/11/02 10:24:48;;;;;;;12.57;1.60;;;15.20;92.60;;;;;;5073462;28;20406;-69
2022/11/02 10:27:31;;;;;;;0.33;0.33;;;15.20;92.70;;;;;;5073347;28;20481;-70
2022/11/02 10:30:17;;;;;;;1.23;0.97;;;15.50;99.90;;;;;;5073189;28;20395;-71
2022/11/02 10:32:44;;;;;;;0.40;0.40;;;15.40;92.70;;;;;;5073401;28;20389;-71
2022/11/02 10:35:37;;;;;;;0.60;0.40;;;15.40;92.40;;;;;;5073549;28;20407;-71
2022/11/02 10:38:33;;;;;;;0.30;0.30;;;15.50;92.40;;;;;;5073323;28;20453;-69
2022/11/02 10:41:17;;;;;;;0.30;0.30;;;15.60;92.70;;;;;;5031573;28;20443;-69
2022/11/02 10:44:10;;;;;;;0.40;0.40;;;15.70;92.00;;;;;;5073297;28;20386;-70
2022/11/02 10:46:58;;;;;;;0.30;0.30;;;15.80;91.80;;;;;;5073722;28;20417;-71
2022/11/02 10:49:49;;;;;;;0.40;0.40;;;16.00;91.50;;;;;;5059860;28;20422;-70
2022/11/02 10:52:16;;;;;;;0.67;0.67;;;16.20;91.60;;;;;;5073255;28;20746;-70
2022/11/02 10:54:41;;;;;;;0.40;0.40;;;16.10;90.60;;;;;;5073469;28;20414;-71
2022/11/02 10:57:12;;;;;;;0.73;0.73;;;16.10;91.10;;;;;;5073300;28;20442;-72
2022/11/02 10:59:37;;;;;;;0.50;0.50;;;16.10;91.10;;;;;;5073131;28;20174;-71
2022/11/02 11:02:13;;;;;;;2.67;1.33;;;16.20;90.70;;;;;;5073209;28;20403;-71
2022/11/02 11:04:40;;;;;;;0.87;0.87;;;16.20;90.50;;;;;;5073336;28;20169;-70
2022/11/02 11:07:12;;;;;;;0.70;0.70;;;16.30;90.50;;;;;;5075639;28;20846;-70
2022/11/02 11:09:45;;;;;;;0.30;0.30;;;16.30;89.70;;;;;;5076808;28;20494;-72
2022/11/02 11:12:22;;;;;;;0.30;0.30;;;16.30;90.20;;;;;;5076916;28;20699;-71
2022/11/02 11:14:51;;;;;;;0.50;0.50;;;16.30;90.20;;;;;;5077034;28;20910;-68
2022/11/02 11:17:22;;;;;;;0.30;0.30;;;16.20;90.40;;;;;;5076798;28;20453;-69
2022/11/02 11:19:53;;;;;;;4.50;0.83;;;16.00;99.80;;;;;;5076796;28;20427;-70
2022/11/02 11:22:22;;;;;;;0.70;0.50;;;15.90;90.40;;;;;;5076913;28;20750;-70
2022/11/02 11:24:47;;;;;;;0.50;0.50;;;16.00;90.70;;;;;;5076756;28;20406;-70
2022/11/02 11:27:16;;;;;;;0.40;0.40;;;15.90;90.10;;;;;;5076560;28;20438;-72
2022/11/02 11:29:57;;;;;;;0.40;0.40;;;16.20;99.70;;;;;;5076573;28;20175;-68
2022/11/02 11:32:29;;;;;;;0.40;0.40;;;15.90;90.00;;;;;;5076775;28;20394;-69
2022/11/02 11:35:21;;;;;;;7.30;1.07;;;16.00;90.60;;;;;;5076659;28;20829;-70
2022/11/02 11:37:56;;;;;;;0.50;0.50;;;16.10;90.60;;;;;;5072285;28;20501;-70
2022/11/02 11:40:22;;;;;;;0.40;0.40;;;16.30;90.20;;;;;;5076221;28;20422;-70
2022/11/02 11:42:51;;;;;;;3.17;0.93;;;16.40;89.40;;;;;;5076456;28;20494;-70
2022/11/02 11:45:21;;;;;;;0.30;0.30;;;16.40;88.20;;;;;;5076431;28;20403;-71
2022/11/02 11:47:52;;;;;;;0.87;0.87;;;16.60;88.10;;;;;;5076514;28;20434;-69
2022/11/02 11:50:18;;;;;;;0.30;0.30;;;16.70;88.40;;;;;;5076121;28;20427;-70
2022/11/02 11:52:44;;;;;;;0.30;0.30;;;16.70;88.30;;;;;;5076399;28;20549;-71
2022/11/02 11:55:30;;;;;;;0.30;0.30;;;16.70;86.90;;;;;;5076212;28;20399;-69
2022/11/02 11:58:14;;;;;;;0.63;0.50;;;16.60;86.60;;;;;;5076185;28;20443;-70
2022/11/02 12:00:40;;;;;;;0.40;0.40;;;16.50;86.80;;;;;;5075869;28;20470;-71
2022/11/02 12:03:11;;;;;;;0.30;0.30;;;16.60;86.40;;;;;;5076238;28;20435;-69
2022/11/02 12:06:02;;;;;;;0.73;0.70;;;16.40;85.10;;;;;;5076420;28;20509;-71
2022/11/02 12:08:52;;;;;;;0.30;0.30;;;16.40;84.80;;;;;;5076358;28;20406;-69
2022/11/02 12:11:42;;;;;;;0.73;0.73;;;16.30;84.80;;;;;;5076327;28;20423;-69
2022/11/02 12:14:35;;;;;;;0.30;0.30;;;16.20;87.40;;;;;;5075803;28;20404;-69
2022/11/02 12:17:19;;;;;;;2.00;0.93;;;16.10;85.80;;;;;;5075948;28;20439;-72
2022/11/02 12:19:57;;;;;;;0.40;0.40;;;15.40;97.50;;;;;;5075197;28;20481;-69
2022/11/02 12:22:29;;;;;;;0.40;0.40;;;15.50;87.40;;;;;;5075740;28;20397;-72
2022/11/02 12:25:12;;;;;;;0.40;0.40;;;15.30;88.10;;;;;;5075702;28;20471;-69
2022/11/02 12:28:05;;;;;;;0.30;0.30;;;15.10;88.60;;;;;;5075746;28;20430;-69
2022/11/02 12:30:50;;;;;;;0.50;0.50;;;15.00;89.40;;;;;;5075349;28;20451;-71
2022/11/02 12:33:42;;;;;;;0.30;0.30;;;15.00;89.40;;;;;;5075770;28;20483;-72
2022/11/02 12:36:45;;;;;;;0.47;0.47;;;15.10;89.80;;;;;;5075658;28;20409;-71
2022/11/02 12:39:29;;;;;;;4.53;0.60;;;15.00;91.00;;;;;;5075337;28;20523;-70
2022/11/02 12:42:23;;;;;;;1.33;1.30;;;14.80;90.00;;;;;;5075351;28;20421;-71
2022/11/02 12:45:13;;;;;;;0.30;0.30;;;14.70;91.70;;;;;;5075319;28;20392;-71
2022/11/02 12:47:55;;;;;;;0.30;0.30;;;14.60;91.30;;;;;;5075561;28;20422;-69
2022/11/02 12:50:35;;;;;;;0.30;0.30;;;14.60;90.50;;;;;;5074899;28;20423;-70
2022/11/02 12:53:19;;;;;;;0.40;0.40;;;14.60;90.20;;;;;;5075123;28;20802;-67
2022/11/02 12:55:48;;;;;;;2.10;0.60;;;14.70;90.10;;;;;;5075381;28;20395;-71
2022/11/02 12:58:23;;;;;;;0.37;0.37;;;14.70;90.10;;;;;;5075192;28;20455;-69
2022/11/02 13:01:01;;;;;;;0.30;0.30;;;14.60;90.90;;;;;;5074699;28;20900;-70
2022/11/02 13:03:50;;;;;;;0.30;0.30;;;14.40;92.20;;;;;;5074876;28;20403;-71
2022/11/02 13:06:21;;;;;;;0.30;0.30;;;14.30;91.90;;;;;;5074916;28;20415;-69
2022/11/02 13:09:03;;;;;;;0.83;0.60;;;14.30;92.60;;;;;;5074765;28;20457;-68
2022/11/02 13:12:02;;;;;;;0.63;0.50;;;14.20;92.50;;;;;;5074850;28;20473;-71
2022/11/02 13:14:37;;;;;;;0.30;0.30;;;14.20;91.80;;;;;;5020407;28;20988;-69
2022/11/02 13:17:04;;;;;;;0.60;0.60;;;14.10;92.40;;;;;;5074760;28;20935;-69
2022/11/02 13:19:38;;;;;;;0.40;0.40;;;14.10;92.50;;;;;;5074474;28;20403;-70
2022/11/02 13:22:11;;;;;;;29.60;1.47;;;14.20;92.10;;;;;;5074300;28;20462;-70